Terminal Aerodrome Forecast
Issued by NWS

Home | Current Version | Previous Version | Text Only | Print | Product List | Glossary Off
Versions: 1 2 3 4 5 6 7 8 9 10 11 12 13 14 15 16 17

000
FTUS43 KMPX 252136 AAA
TAFRWF
TAF AMD
KRWF 252136Z 2522/2618 20010KT P6SM SCT100
     FM260200 20009KT P6SM VCSH BKN100
     FM260600 23006KT P6SM SCT120
     FM261200 25008KT P6SM SCT150=

USA.gov is the U.S. government's official web portal to all federal, state and local government web resources and services.